55FD weather

Dotson Airport
Baker, Florida, United States

Public forecast

Using degrees Fahrenheit for public forecast. Weather courtesy of forecast.io.

METAR (pilot weather report)

Closest report is Bob Sikes Airport, 8.9 nm (16.4 km) ESE. Retrieved 2017/10/21 11:53 UTC (54 minutes ago):

KCEW 211153Z AUTO 08004KT 10SM CLR 17/16 A3015 RMK AO2 SLP209 T01720156 10172 20156 53009

TAF (pilot weather forecast)

Forecast is more than 6 hours old.

Closest forecast is Duke Field, 13.2 nm (24.5 km) SE. Retrieved 2017/10/21 01:06 UTC (12 hours ago):

TAF KEGI 210100Z 2101/2207 04005KT 9999 SCT040 BKN250 QNH3007INS BECMG 2114/2115 10010KT 9999 SCT035 BKN250 QNH3002INS BECMG 2122/2123 11006KT 9999 SCT025 BKN250 QNH3005INS TX28/2118Z TN15/2112Z FCST BY USAF WX MET TECH